createdAt,value
2023-05-10T00:04:41.619Z,0.00
2023-05-10T00:09:42.775Z,0.00
2023-05-10T00:14:43.841Z,0.00
2023-05-10T00:19:44.961Z,0.00
2023-05-10T00:24:47.013Z,0.00
2023-05-10T00:29:46.099Z,0.00
2023-05-10T00:34:47.136Z,0.00
2023-05-10T00:39:48.214Z,0.00
2023-05-10T00:44:50.247Z,0.00
2023-05-10T00:49:49.268Z,0.00
2023-05-10T00:54:50.289Z,0.00
2023-05-10T00:59:52.317Z,0.00
2023-05-10T01:04:52.374Z,0.00
2023-05-10T01:09:53.392Z,0.00
2023-05-10T01:14:52.454Z,0.00
2023-05-10T01:19:53.492Z,0.00
2023-05-10T01:24:54.522Z,0.00
2023-05-10T01:30:09.197Z,0.00
2023-05-10T01:34:55.474Z,0.00
2023-05-10T01:39:56.526Z,0.00
2023-05-10T01:44:58.541Z,0.00
2023-05-10T01:49:57.616Z,0.00
2023-05-10T01:54:58.644Z,0.00
2023-05-10T02:00:00.656Z,0.00
2023-05-10T02:04:59.685Z,0.00
2023-05-10T02:10:01.750Z,0.00
2023-05-10T02:15:00.798Z,0.00
2023-05-10T02:20:02.852Z,0.00
2023-05-10T02:25:02.918Z,0.00
2023-05-10T02:30:01.951Z,0.00
2023-05-10T02:35:03.022Z,0.00
2023-05-10T02:40:04.125Z,0.00
2023-05-10T02:45:07.156Z,0.00
2023-05-10T02:50:08.232Z,0.00
2023-05-10T02:55:07.284Z,0.00
2023-05-10T03:00:08.307Z,0.00
2023-05-10T03:05:09.354Z,0.00
2023-05-10T03:10:10.400Z,0.00
2023-05-10T03:15:11.445Z,0.00
2023-05-10T03:20:13.521Z,0.00
2023-05-10T03:25:12.576Z,4.00
2023-05-10T03:30:13.599Z,0.00
2023-05-10T03:35:14.679Z,8.00
2023-05-10T03:40:16.987Z,12.00
2023-05-10T03:45:18.135Z,20.00
2023-05-10T03:50:17.435Z,40.00
2023-05-10T03:55:18.594Z,60.00
2023-05-10T04:00:19.728Z,76.00
2023-05-10T04:05:22.777Z,124.00
2023-05-10T04:10:22.814Z,168.00
2023-05-10T04:15:21.852Z,364.00
2023-05-10T04:20:23.889Z,484.00
2023-05-10T04:25:23.959Z,616.00
2023-05-10T04:30:23.005Z,652.00
2023-05-10T04:35:26.049Z,668.00
2023-05-10T04:40:26.064Z,768.00
2023-05-10T04:45:25.087Z,1052.00
2023-05-10T04:50:27.126Z,1288.00
2023-05-10T04:55:27.157Z,1460.00
2023-05-10T05:00:25.187Z,1652.00
2023-05-10T05:05:26.217Z,1472.00
2023-05-10T05:10:28.288Z,1928.00
2023-05-10T05:15:28.346Z,2240.00
2023-05-10T05:20:27.381Z,1992.00
2023-05-10T05:25:28.458Z,1976.00
2023-05-10T05:30:29.513Z,2048.00
2023-05-10T05:35:31.591Z,1904.00
2023-05-10T05:40:30.621Z,1664.00
2023-05-10T05:45:32.718Z,1500.00
2023-05-10T05:50:33.731Z,1292.00
2023-05-10T05:55:33.766Z,1844.00
2023-05-10T06:00:32.817Z,2260.00
2023-05-10T06:05:34.846Z,3044.00
2023-05-10T06:10:34.866Z,2924.00
2023-05-10T06:15:34.913Z,2700.00
2023-05-10T06:20:34.005Z,2516.00
2023-05-10T06:25:35.009Z,3040.00
2023-05-10T06:30:36.071Z,2464.00
2023-05-10T06:35:37.120Z,1856.00
2023-05-10T06:40:39.157Z,1696.00
2023-05-10T06:45:38.211Z,1532.00
2023-05-10T06:50:40.251Z,1532.00
2023-05-10T06:55:39.287Z,1528.00
2023-05-10T07:00:40.356Z,1492.00
2023-05-10T07:05:42.442Z,1600.00
2023-05-10T07:10:41.474Z,1716.00
2023-05-10T07:15:44.514Z,1828.00
2023-05-10T07:20:43.562Z,1864.00
2023-05-10T07:25:44.586Z,2016.00
2023-05-10T07:30:45.724Z,2220.00
2023-05-10T07:35:46.813Z,2272.00
2023-05-10T07:40:47.876Z,2560.00
2023-05-10T07:45:48.976Z,2648.00
2023-05-10T07:50:49.979Z,2528.00
2023-05-10T07:55:51.024Z,2684.00
2023-05-10T08:00:53.072Z,2940.00
2023-05-10T08:05:52.128Z,2944.00
2023-05-10T08:10:54.216Z,3188.00
2023-05-10T08:15:53.264Z,3464.00
2023-05-10T08:20:54.309Z,3724.00
2023-05-10T08:25:55.352Z,3324.00
2023-05-10T08:30:56.393Z,2864.00
2023-05-10T08:35:58.503Z,3344.00
2023-05-10T08:40:57.715Z,3872.00
2023-05-10T08:45:58.762Z,4064.00
2023-05-10T08:51:00.853Z,3844.00
2023-05-10T08:56:00.954Z,4456.00
2023-05-10T09:01:00.999Z,4764.00
2023-05-10T09:06:00.065Z,4708.00
2023-05-10T09:11:02.134Z,4788.00
2023-05-10T09:16:13.587Z,5444.00
2023-05-10T09:21:01.101Z,6268.00
2023-05-10T09:26:03.166Z,6304.00
2023-05-10T09:31:03.271Z,6312.00
2023-05-10T09:36:02.408Z,5956.00
2023-05-10T09:41:03.530Z,5332.00
2023-05-10T09:46:05.676Z,5212.00
2023-05-10T09:51:04.702Z,4948.00
2023-05-10T09:56:05.751Z,4296.00
2023-05-10T10:01:07.917Z,3772.00
2023-05-10T10:06:15.822Z,3596.00
2023-05-10T10:11:09.055Z,4012.00
2023-05-10T10:16:09.165Z,3588.00
2023-05-10T10:21:08.207Z,3476.00
2023-05-10T10:26:10.303Z,4400.00
2023-05-10T10:31:08.408Z,3980.00
2023-05-10T10:36:10.432Z,4556.00
2023-05-10T10:41:10.503Z,4480.00
2023-05-10T10:46:09.599Z,4520.00
2023-05-10T10:51:13.007Z,4872.00
2023-05-10T10:56:12.095Z,5312.00
2023-05-10T11:01:17.207Z,5324.00
2023-05-10T11:06:15.303Z,5076.00
2023-05-10T11:11:15.349Z,4780.00
2023-05-10T11:16:14.558Z,4868.00
2023-05-10T11:21:15.747Z,5096.00
2023-05-10T11:26:16.824Z,5396.00
2023-05-10T11:31:17.977Z,5516.00
2023-05-10T11:36:19.009Z,5524.00
2023-05-10T11:41:20.086Z,5372.00
2023-05-10T11:46:22.198Z,5476.00
2023-05-10T11:51:21.316Z,5308.00
2023-05-10T11:56:22.390Z,5220.00
2023-05-10T12:01:24.480Z,4772.00
2023-05-10T12:06:25.227Z,5184.00
2023-05-10T12:11:26.985Z,5060.00
2023-05-10T12:16:25.052Z,4988.00
2023-05-10T12:21:31.476Z,4668.00
2023-05-10T12:26:33.361Z,4548.00
2023-05-10T12:31:37.422Z,4464.00
2023-05-10T12:36:29.765Z,4680.00
2023-05-10T12:42:02.986Z,4632.00
2023-05-10T12:46:36.996Z,4880.00
2023-05-10T12:51:50.222Z,5376.00
2023-05-10T12:57:04.655Z,4800.00
2023-05-10T19:10:26.669Z,0.00
2023-05-10T19:15:26.248Z,0.00
2023-05-10T19:20:29.164Z,0.00
2023-05-10T19:25:29.009Z,0.00
2023-05-10T19:30:28.674Z,0.00
2023-05-10T19:35:26.393Z,0.00
2023-05-10T19:40:26.986Z,0.00
2023-05-10T19:45:27.601Z,0.00
2023-05-10T19:50:28.188Z,0.00
2023-05-10T19:55:29.052Z,0.00
2023-05-10T20:00:30.074Z,0.00
2023-05-10T20:05:29.747Z,0.00
2023-05-10T20:10:30.728Z,0.00
2023-05-10T20:15:30.819Z,0.00
2023-05-10T20:20:31.436Z,0.00
2023-05-10T20:25:31.013Z,0.00
2023-05-10T20:30:31.500Z,0.00
2023-05-10T20:35:31.107Z,0.00
2023-05-10T20:40:30.703Z,0.00
2023-05-10T20:45:32.297Z,0.00
2023-05-10T20:50:30.903Z,0.00
2023-05-10T20:55:31.467Z,0.00
2023-05-10T21:00:31.742Z,0.00
2023-05-10T21:05:30.996Z,0.00
2023-05-10T21:10:32.121Z,0.00
2023-05-10T21:15:33.275Z,0.00
2023-05-10T21:20:34.394Z,0.00
2023-05-10T21:25:35.427Z,0.00
2023-05-10T21:30:36.466Z,0.00
2023-05-10T21:35:38.510Z,0.00
2023-05-10T21:40:37.547Z,0.00
2023-05-10T21:45:38.637Z,0.00
2023-05-10T21:50:39.645Z,0.00
2023-05-10T21:55:41.683Z,0.00
2023-05-10T22:00:40.728Z,0.00
2023-05-10T22:05:41.784Z,0.00
2023-05-10T22:10:43.004Z,0.00
2023-05-10T22:15:43.072Z,0.00
2023-05-10T22:20:44.257Z,0.00
2023-05-10T22:25:46.282Z,0.00
2023-05-10T22:30:45.557Z,0.00
2023-05-10T22:35:46.672Z,0.00
2023-05-10T22:40:47.738Z,0.00
2023-05-10T22:45:48.781Z,0.00
2023-05-10T22:50:49.850Z,0.00
2023-05-10T22:55:50.915Z,0.00
2023-05-10T23:00:51.963Z,0.00
2023-05-10T23:05:53.039Z,0.00
2023-05-10T23:10:54.092Z,0.00
2023-05-10T23:15:56.191Z,0.00
2023-05-10T23:20:55.205Z,0.00
2023-05-10T23:25:56.256Z,0.00
2023-05-10T23:30:58.297Z,0.00
2023-05-10T23:35:57.324Z,0.00
2023-05-10T23:40:58.361Z,0.00
2023-05-10T23:46:00.409Z,0.00
2023-05-10T23:51:00.409Z,0.00
2023-05-10T23:55:59.658Z,0.00
